首页
METAR-TAF:

METAR-TAF

机场 :

Mackenzie, 不列颠哥伦比亚, 加拿大

纬度: 55-18N, 经度: 123-08W, 海拔: 695米

当前天气观测

该预报发布于17分钟前的15:00 UTC
风速4节,风向东南
温度 9°C
湿度 93%
气压 1007 hPa
能見度: 14.5公里
少量云层高于2200英尺
阴天层高于4200英尺

METAR: CYZY 121500Z AUTO 14004KT 9SM FEW022 OVC042 09/08 A2975 RMK SLP093

时间: 08:17 (15:17 UTC)

预报

该预报发布于39分钟前的14:38 UTC
预报有效从12日的 15点(UTC)到 13日的 03点(UTC)
风速3节,风向多变
能見度: 10公里
散云层高于3000英尺
阴天层高于5000英尺
短暂存在
从 12日的 15点(UTC)到 12日的 21点(UTC)
能見度: 10公里
阴天层高于3000英尺
小阵雨
成为
从 12日的 18点(UTC)到 12日的 20点(UTC)
风速8节,风向南转西南
从 12日的 2100点(UTC)
风速10节,风向南转西南
能見度: 10公里
散云层高于2000英尺
阴天层高于4000英尺
小阵雨
短暂存在
从 12日的 21点(UTC)到 13日的 03点(UTC)
能見度: 4.8公里
多云层高于2000英尺
小阵雨, 轻雾

TAF: CYZY 121438Z 1215/1303 VRB03KT P6SM SCT030 OVC050 TEMPO 1215/1221 P6SM -SHRA OVC030 BECMG 1218/1220 20008KT FM122100 20010KT P6SM -SHRA SCT020 OVC040 TEMPO 1221/1303 3SM -SHRA BR BKN020 RMK FCST BASED ON AUTO OBS. NXT FCST BY 121900Z

超过4000个机场的气象观测和天气预报(METAR&TAF报告)。

可查询的气象台以黄色和红色小点在地图上表示。

将鼠标移到小点上方,可查看气象台名称。

然后点击查看天气观测和预报。

如需切换地图:点击带黑十字的绿色按钮放大地图;点击带横线的绿色按钮缩小地图;或者点击绿色箭头查看邻近地区的地图。


METAR-TAF: